sensor_id;sensor_type;location;lat;lon;timestamp;P1;durP1;ratioP1;P2;durP2;ratioP2
62997;SDS011;55949;52.590;7.330;2023-05-07T00:00:47;21.75;;;15.95;;
62997;SDS011;55949;52.590;7.330;2023-05-07T00:01:48;24.50;;;16.58;;
62997;SDS011;55949;52.590;7.330;2023-05-07T00:02:49;21.63;;;16.35;;
62997;SDS011;55949;52.590;7.330;2023-05-07T00:03:49;23.92;;;16.80;;
62997;SDS011;55949;52.590;7.330;2023-05-07T00:04:50;21.40;;;16.35;;
62997;SDS011;55949;52.590;7.330;2023-05-07T00:05:52;24.52;;;17.55;;
62997;SDS011;55949;52.590;7.330;2023-05-07T00:06:53;24.38;;;17.48;;
62997;SDS011;55949;52.590;7.330;2023-05-07T00:07:53;23.35;;;17.35;;
62997;SDS011;55949;52.590;7.330;2023-05-07T00:08:55;22.30;;;16.23;;
62997;SDS011;55949;52.590;7.330;2023-05-07T00:09:56;23.48;;;16.50;;
62997;SDS011;55949;52.590;7.330;2023-05-07T00:10:57;27.52;;;18.13;;
62997;SDS011;55949;52.590;7.330;2023-05-07T00:11:58;21.73;;;15.80;;
62997;SDS011;55949;52.590;7.330;2023-05-07T00:12:59;22.25;;;16.65;;
62997;SDS011;55949;52.590;7.330;2023-05-07T00:14:00;23.08;;;15.80;;
62997;SDS011;55949;52.590;7.330;2023-05-07T00:15:04;26.23;;;17.27;;
62997;SDS011;55949;52.590;7.330;2023-05-07T00:16:05;22.90;;;17.35;;
62997;SDS011;55949;52.590;7.330;2023-05-07T00:17:06;26.40;;;17.65;;
62997;SDS011;55949;52.590;7.330;2023-05-07T00:18:07;26.60;;;17.38;;
62997;SDS011;55949;52.590;7.330;2023-05-07T00:19:07;22.70;;;16.88;;
62997;SDS011;55949;52.590;7.330;2023-05-07T00:20:08;28.05;;;16.85;;
62997;SDS011;55949;52.590;7.330;2023-05-07T00:21:10;23.80;;;16.42;;
62997;SDS011;55949;52.590;7.330;2023-05-07T00:22:11;21.92;;;16.13;;
62997;SDS011;55949;52.590;7.330;2023-05-07T00:23:11;25.30;;;17.55;;
62997;SDS011;55949;52.590;7.330;2023-05-07T00:24:12;23.98;;;15.98;;
62997;SDS011;55949;52.590;7.330;2023-05-07T00:25:13;25.15;;;18.17;;
62997;SDS011;55949;52.590;7.330;2023-05-07T00:26:14;26.63;;;17.75;;
62997;SDS011;55949;52.590;7.330;2023-05-07T00:27:15;27.38;;;17.92;;
62997;SDS011;55949;52.590;7.330;2023-05-07T00:28:16;27.52;;;17.67;;
62997;SDS011;55949;52.590;7.330;2023-05-07T00:29:17;23.08;;;16.90;;
62997;SDS011;55949;52.590;7.330;2023-05-07T00:30:17;24.55;;;16.65;;
62997;SDS011;55949;52.590;7.330;2023-05-07T00:31:18;23.50;;;17.42;;
62997;SDS011;55949;52.590;7.330;2023-05-07T00:32:19;23.42;;;17.30;;
62997;SDS011;55949;52.590;7.330;2023-05-07T00:33:20;25.98;;;17.67;;
62997;SDS011;55949;52.590;7.330;2023-05-07T00:34:20;24.88;;;16.85;;
62997;SDS011;55949;52.590;7.330;2023-05-07T00:35:22;22.42;;;16.73;;
62997;SDS011;55949;52.590;7.330;2023-05-07T00:36:23;23.80;;;18.05;;
62997;SDS011;55949;52.590;7.330;2023-05-07T00:37:23;24.75;;;18.67;;
62997;SDS011;55949;52.590;7.330;2023-05-07T00:38:25;27.63;;;17.73;;
62997;SDS011;55949;52.590;7.330;2023-05-07T00:39:25;23.90;;;16.48;;
62997;SDS011;55949;52.590;7.330;2023-05-07T00:40:26;25.90;;;17.80;;
62997;SDS011;55949;52.590;7.330;2023-05-07T00:41:27;26.75;;;17.80;;
62997;SDS011;55949;52.590;7.330;2023-05-07T00:42:28;26.13;;;18.63;;
62997;SDS011;55949;52.590;7.330;2023-05-07T00:43:29;25.08;;;16.95;;
62997;SDS011;55949;52.590;7.330;2023-05-07T00:44:29;29.17;;;19.77;;
62997;SDS011;55949;52.590;7.330;2023-05-07T00:45:30;27.80;;;17.85;;
62997;SDS011;55949;52.590;7.330;2023-05-07T00:46:31;27.35;;;18.17;;
62997;SDS011;55949;52.590;7.330;2023-05-07T00:47:33;24.73;;;17.98;;
62997;SDS011;55949;52.590;7.330;2023-05-07T00:48:34;28.52;;;18.60;;
62997;SDS011;55949;52.590;7.330;2023-05-07T00:49:38;25.60;;;18.02;;
62997;SDS011;55949;52.590;7.330;2023-05-07T00:50:41;25.73;;;17.73;;
62997;SDS011;55949;52.590;7.330;2023-05-07T00:51:42;29.98;;;19.15;;
62997;SDS011;55949;52.590;7.330;2023-05-07T00:52:44;27.27;;;18.15;;
62997;SDS011;55949;52.590;7.330;2023-05-07T00:53:45;27.77;;;18.50;;
62997;SDS011;55949;52.590;7.330;2023-05-07T00:54:46;26.92;;;19.23;;
62997;SDS011;55949;52.590;7.330;2023-05-07T00:55:47;25.83;;;18.42;;
62997;SDS011;55949;52.590;7.330;2023-05-07T00:56:48;27.17;;;18.95;;
62997;SDS011;55949;52.590;7.330;2023-05-07T00:57:50;26.10;;;18.63;;
62997;SDS011;55949;52.590;7.330;2023-05-07T00:58:51;26.85;;;19.20;;
62997;SDS011;55949;52.590;7.330;2023-05-07T00:59:52;26.00;;;18.65;;
62997;SDS011;55949;52.590;7.330;2023-05-07T01:00:53;26.45;;;18.73;;
62997;SDS011;55949;52.590;7.330;2023-05-07T01:01:53;28.35;;;18.98;;
62997;SDS011;55949;52.590;7.330;2023-05-07T01:02:54;28.77;;;19.02;;
62997;SDS011;55949;52.590;7.330;2023-05-07T01:03:55;29.75;;;19.38;;
62997;SDS011;55949;52.590;7.330;2023-05-07T01:04:56;30.80;;;20.42;;
62997;SDS011;55949;52.590;7.330;2023-05-07T01:05:58;32.25;;;20.67;;
62997;SDS011;55949;52.590;7.330;2023-05-07T01:06:59;29.25;;;19.60;;
62997;SDS011;55949;52.590;7.330;2023-05-07T01:08:02;30.92;;;20.52;;
62997;SDS011;55949;52.590;7.330;2023-05-07T01:09:05;31.60;;;21.45;;
62997;SDS011;55949;52.590;7.330;2023-05-07T01:10:06;30.70;;;20.10;;
62997;SDS011;55949;52.590;7.330;2023-05-07T01:11:07;28.50;;;20.63;;
62997;SDS011;55949;52.590;7.330;2023-05-07T01:12:08;33.33;;;21.20;;
62997;SDS011;55949;52.590;7.330;2023-05-07T01:13:10;29.02;;;19.75;;
62997;SDS011;55949;52.590;7.330;2023-05-07T01:14:12;31.95;;;21.35;;
62997;SDS011;55949;52.590;7.330;2023-05-07T01:15:12;30.80;;;20.20;;
62997;SDS011;55949;52.590;7.330;2023-05-07T01:16:14;27.88;;;19.52;;
62997;SDS011;55949;52.590;7.330;2023-05-07T01:17:15;35.20;;;21.20;;
62997;SDS011;55949;52.590;7.330;2023-05-07T01:18:17;31.15;;;20.35;;
62997;SDS011;55949;52.590;7.330;2023-05-07T01:19:18;34.60;;;20.75;;
62997;SDS011;55949;52.590;7.330;2023-05-07T01:20:19;32.05;;;19.85;;
62997;SDS011;55949;52.590;7.330;2023-05-07T01:21:22;27.48;;;20.42;;
62997;SDS011;55949;52.590;7.330;2023-05-07T01:22:30;31.88;;;19.73;;
62997;SDS011;55949;52.590;7.330;2023-05-07T01:23:32;31.77;;;21.17;;
62997;SDS011;55949;52.590;7.330;2023-05-07T01:24:36;29.33;;;19.52;;
62997;SDS011;55949;52.590;7.330;2023-05-07T01:25:37;33.38;;;21.73;;
62997;SDS011;55949;52.590;7.330;2023-05-07T01:26:38;34.65;;;20.20;;
62997;SDS011;55949;52.590;7.330;2023-05-07T01:27:39;33.75;;;21.67;;
62997;SDS011;55949;52.590;7.330;2023-05-07T01:28:41;33.45;;;21.77;;
62997;SDS011;55949;52.590;7.330;2023-05-07T01:29:41;33.00;;;21.35;;
62997;SDS011;55949;52.590;7.330;2023-05-07T01:30:42;35.63;;;22.55;;
62997;SDS011;55949;52.590;7.330;2023-05-07T01:31:48;31.45;;;21.33;;
62997;SDS011;55949;52.590;7.330;2023-05-07T01:33:04;31.10;;;21.67;;
62997;SDS011;55949;52.590;7.330;2023-05-07T01:34:09;34.13;;;21.75;;
62997;SDS011;55949;52.590;7.330;2023-05-07T01:35:12;34.92;;;21.60;;
62997;SDS011;55949;52.590;7.330;2023-05-07T01:36:18;32.58;;;22.00;;
62997;SDS011;55949;52.590;7.330;2023-05-07T01:37:22;31.73;;;21.38;;
62997;SDS011;55949;52.590;7.330;2023-05-07T01:38:24;33.45;;;22.40;;
62997;SDS011;55949;52.590;7.330;2023-05-07T01:39:27;33.15;;;20.98;;
62997;SDS011;55949;52.590;7.330;2023-05-07T01:40:30;36.28;;;22.77;;
62997;SDS011;55949;52.590;7.330;2023-05-07T01:41:31;32.88;;;22.23;;
62997;SDS011;55949;52.590;7.330;2023-05-07T01:42:31;34.95;;;22.70;;
62997;SDS011;55949;52.590;7.330;2023-05-07T01:43:32;32.78;;;21.77;;
62997;SDS011;55949;52.590;7.330;2023-05-07T01:44:33;36.22;;;22.92;;
62997;SDS011;55949;52.590;7.330;2023-05-07T01:45:34;37.75;;;23.63;;
62997;SDS011;55949;52.590;7.330;2023-05-07T01:46:35;35.33;;;23.02;;
62997;SDS011;55949;52.590;7.330;2023-05-07T01:47:37;37.40;;;23.75;;
62997;SDS011;55949;52.590;7.330;2023-05-07T01:48:38;32.35;;;23.55;;
62997;SDS011;55949;52.590;7.330;2023-05-07T01:49:39;36.42;;;23.52;;
62997;SDS011;55949;52.590;7.330;2023-05-07T01:50:44;36.92;;;23.13;;
62997;SDS011;55949;52.590;7.330;2023-05-07T01:51:45;39.40;;;23.08;;
62997;SDS011;55949;52.590;7.330;2023-05-07T01:52:46;37.35;;;22.55;;
62997;SDS011;55949;52.590;7.330;2023-05-07T01:53:51;35.50;;;23.40;;
62997;SDS011;55949;52.590;7.330;2023-05-07T01:54:53;37.03;;;24.05;;
62997;SDS011;55949;52.590;7.330;2023-05-07T01:55:54;35.65;;;22.67;;
62997;SDS011;55949;52.590;7.330;2023-05-07T01:56:55;37.50;;;23.88;;
62997;SDS011;55949;52.590;7.330;2023-05-07T01:57:57;38.53;;;25.10;;
62997;SDS011;55949;52.590;7.330;2023-05-07T01:58:57;40.65;;;24.10;;
62997;SDS011;55949;52.590;7.330;2023-05-07T01:59:58;38.10;;;24.77;;
62997;SDS011;55949;52.590;7.330;2023-05-07T02:00:59;44.13;;;25.50;;
62997;SDS011;55949;52.590;7.330;2023-05-07T02:02:00;41.20;;;24.90;;
62997;SDS011;55949;52.590;7.330;2023-05-07T02:03:00;38.47;;;24.75;;
62997;SDS011;55949;52.590;7.330;2023-05-07T02:04:01;39.63;;;24.27;;
62997;SDS011;55949;52.590;7.330;2023-05-07T02:05:02;37.47;;;25.05;;
62997;SDS011;55949;52.590;7.330;2023-05-07T02:06:03;42.33;;;25.17;;
62997;SDS011;55949;52.590;7.330;2023-05-07T02:07:04;40.10;;;25.88;;
62997;SDS011;55949;52.590;7.330;2023-05-07T02:08:05;41.20;;;25.60;;
62997;SDS011;55949;52.590;7.330;2023-05-07T02:09:05;42.78;;;27.10;;
62997;SDS011;55949;52.590;7.330;2023-05-07T02:10:06;39.92;;;26.52;;
62997;SDS011;55949;52.590;7.330;2023-05-07T02:11:07;40.95;;;26.77;;
62997;SDS011;55949;52.590;7.330;2023-05-07T02:12:08;41.58;;;25.90;;
62997;SDS011;55949;52.590;7.330;2023-05-07T02:13:08;42.65;;;26.65;;
62997;SDS011;55949;52.590;7.330;2023-05-07T02:14:09;43.38;;;27.40;;
62997;SDS011;55949;52.590;7.330;2023-05-07T02:15:10;41.28;;;26.58;;
62997;SDS011;55949;52.590;7.330;2023-05-07T02:16:11;43.45;;;27.45;;
62997;SDS011;55949;52.590;7.330;2023-05-07T02:17:14;45.95;;;26.85;;
62997;SDS011;55949;52.590;7.330;2023-05-07T02:18:15;48.92;;;27.30;;
62997;SDS011;55949;52.590;7.330;2023-05-07T02:19:16;42.70;;;26.98;;
62997;SDS011;55949;52.590;7.330;2023-05-07T02:20:18;46.75;;;27.95;;
62997;SDS011;55949;52.590;7.330;2023-05-07T02:21:18;45.78;;;27.88;;
62997;SDS011;55949;52.590;7.330;2023-05-07T02:22:19;40.92;;;26.58;;
62997;SDS011;55949;52.590;7.330;2023-05-07T02:23:20;49.85;;;28.27;;
62997;SDS011;55949;52.590;7.330;2023-05-07T02:24:20;45.45;;;28.00;;
62997;SDS011;55949;52.590;7.330;2023-05-07T02:25:21;46.47;;;28.00;;
62997;SDS011;55949;52.590;7.330;2023-05-07T02:26:22;47.55;;;29.02;;
62997;SDS011;55949;52.590;7.330;2023-05-07T02:27:23;47.42;;;28.73;;
62997;SDS011;55949;52.590;7.330;2023-05-07T02:28:23;43.42;;;28.83;;
62997;SDS011;55949;52.590;7.330;2023-05-07T02:29:24;47.25;;;29.05;;
62997;SDS011;55949;52.590;7.330;2023-05-07T02:30:25;50.80;;;28.95;;
62997;SDS011;55949;52.590;7.330;2023-05-07T02:31:26;49.10;;;28.13;;
62997;SDS011;55949;52.590;7.330;2023-05-07T02:32:27;47.25;;;29.65;;
62997;SDS011;55949;52.590;7.330;2023-05-07T02:33:27;47.90;;;28.55;;
62997;SDS011;55949;52.590;7.330;2023-05-07T02:34:28;44.20;;;28.05;;
62997;SDS011;55949;52.590;7.330;2023-05-07T02:35:29;46.97;;;29.80;;
62997;SDS011;55949;52.590;7.330;2023-05-07T02:36:29;47.95;;;30.13;;
62997;SDS011;55949;52.590;7.330;2023-05-07T02:37:30;46.33;;;28.75;;
62997;SDS011;55949;52.590;7.330;2023-05-07T02:38:31;46.80;;;27.70;;
62997;SDS011;55949;52.590;7.330;2023-05-07T02:39:31;47.72;;;29.48;;
62997;SDS011;55949;52.590;7.330;2023-05-07T02:40:32;44.65;;;28.83;;
62997;SDS011;55949;52.590;7.330;2023-05-07T02:41:33;41.80;;;27.58;;
62997;SDS011;55949;52.590;7.330;2023-05-07T02:42:34;44.38;;;28.67;;
62997;SDS011;55949;52.590;7.330;2023-05-07T02:43:36;49.13;;;29.88;;
62997;SDS011;55949;52.590;7.330;2023-05-07T02:44:36;44.33;;;28.90;;
62997;SDS011;55949;52.590;7.330;2023-05-07T02:45:37;50.92;;;29.05;;
62997;SDS011;55949;52.590;7.330;2023-05-07T02:46:38;44.03;;;27.65;;
62997;SDS011;55949;52.590;7.330;2023-05-07T02:47:38;47.70;;;30.77;;
62997;SDS011;55949;52.590;7.330;2023-05-07T02:48:39;47.10;;;30.50;;
62997;SDS011;55949;52.590;7.330;2023-05-07T02:49:40;41.97;;;27.60;;
62997;SDS011;55949;52.590;7.330;2023-05-07T02:50:41;42.22;;;27.67;;
62997;SDS011;55949;52.590;7.330;2023-05-07T02:51:42;44.78;;;28.63;;
62997;SDS011;55949;52.590;7.330;2023-05-07T02:52:42;43.75;;;29.85;;
62997;SDS011;55949;52.590;7.330;2023-05-07T02:53:43;50.17;;;31.25;;
62997;SDS011;55949;52.590;7.330;2023-05-07T02:54:44;49.58;;;28.55;;
62997;SDS011;55949;52.590;7.330;2023-05-07T02:55:44;42.83;;;27.85;;
62997;SDS011;55949;52.590;7.330;2023-05-07T02:56:45;42.67;;;27.98;;
62997;SDS011;55949;52.590;7.330;2023-05-07T02:57:46;46.83;;;28.85;;
62997;SDS011;55949;52.590;7.330;2023-05-07T02:58:46;43.90;;;28.60;;
62997;SDS011;55949;52.590;7.330;2023-05-07T02:59:47;46.45;;;27.83;;
62997;SDS011;55949;52.590;7.330;2023-05-07T03:00:48;46.00;;;28.13;;
62997;SDS011;55949;52.590;7.330;2023-05-07T03:01:48;44.20;;;27.10;;
62997;SDS011;55949;52.590;7.330;2023-05-07T03:02:49;46.13;;;28.63;;
62997;SDS011;55949;52.590;7.330;2023-05-07T03:03:50;49.67;;;26.92;;
62997;SDS011;55949;52.590;7.330;2023-05-07T03:04:51;43.65;;;27.92;;
62997;SDS011;55949;52.590;7.330;2023-05-07T03:05:51;41.03;;;26.63;;
62997;SDS011;55949;52.590;7.330;2023-05-07T03:06:52;46.58;;;27.25;;
62997;SDS011;55949;52.590;7.330;2023-05-07T03:07:53;44.88;;;27.73;;
62997;SDS011;55949;52.590;7.330;2023-05-07T03:08:53;41.97;;;26.77;;
62997;SDS011;55949;52.590;7.330;2023-05-07T03:09:54;43.40;;;27.70;;
62997;SDS011;55949;52.590;7.330;2023-05-07T03:10:55;43.25;;;27.45;;
62997;SDS011;55949;52.590;7.330;2023-05-07T03:11:56;41.45;;;27.55;;
62997;SDS011;55949;52.590;7.330;2023-05-07T03:12:57;44.13;;;27.70;;
62997;SDS011;55949;52.590;7.330;2023-05-07T03:13:57;41.30;;;25.95;;
62997;SDS011;55949;52.590;7.330;2023-05-07T03:14:58;40.40;;;26.38;;
62997;SDS011;55949;52.590;7.330;2023-05-07T03:15:59;43.53;;;27.92;;
62997;SDS011;55949;52.590;7.330;2023-05-07T03:17:00;41.15;;;27.35;;
62997;SDS011;55949;52.590;7.330;2023-05-07T03:18:00;40.22;;;26.95;;
62997;SDS011;55949;52.590;7.330;2023-05-07T03:19:01;39.90;;;26.55;;
62997;SDS011;55949;52.590;7.330;2023-05-07T03:20:02;40.08;;;27.05;;
62997;SDS011;55949;52.590;7.330;2023-05-07T03:21:03;42.03;;;26.65;;
62997;SDS011;55949;52.590;7.330;2023-05-07T03:22:04;43.95;;;27.35;;
62997;SDS011;55949;52.590;7.330;2023-05-07T03:23:05;39.70;;;27.00;;
62997;SDS011;55949;52.590;7.330;2023-05-07T03:24:05;42.40;;;27.63;;
62997;SDS011;55949;52.590;7.330;2023-05-07T03:25:06;42.35;;;26.08;;
62997;SDS011;55949;52.590;7.330;2023-05-07T03:26:08;40.92;;;26.15;;
62997;SDS011;55949;52.590;7.330;2023-05-07T03:27:09;41.50;;;27.17;;
62997;SDS011;55949;52.590;7.330;2023-05-07T03:28:09;39.13;;;26.08;;
62997;SDS011;55949;52.590;7.330;2023-05-07T03:29:10;41.50;;;26.20;;
62997;SDS011;55949;52.590;7.330;2023-05-07T03:30:11;40.42;;;23.83;;
62997;SDS011;55949;52.590;7.330;2023-05-07T03:31:12;42.90;;;26.52;;
62997;SDS011;55949;52.590;7.330;2023-05-07T03:32:13;38.30;;;27.10;;
62997;SDS011;55949;52.590;7.330;2023-05-07T03:33:14;40.67;;;26.25;;
62997;SDS011;55949;52.590;7.330;2023-05-07T03:34:15;37.28;;;24.38;;
62997;SDS011;55949;52.590;7.330;2023-05-07T03:35:17;38.90;;;24.05;;
62997;SDS011;55949;52.590;7.330;2023-05-07T03:36:17;38.00;;;24.38;;
62997;SDS011;55949;52.590;7.330;2023-05-07T03:37:18;37.47;;;25.58;;
62997;SDS011;55949;52.590;7.330;2023-05-07T03:38:19;43.08;;;25.95;;
62997;SDS011;55949;52.590;7.330;2023-05-07T03:39:20;36.95;;;24.55;;
62997;SDS011;55949;52.590;7.330;2023-05-07T03:40:21;38.65;;;25.48;;
62997;SDS011;55949;52.590;7.330;2023-05-07T03:41:21;37.38;;;25.50;;
62997;SDS011;55949;52.590;7.330;2023-05-07T03:42:23;35.47;;;24.33;;
62997;SDS011;55949;52.590;7.330;2023-05-07T03:43:23;36.42;;;24.42;;
62997;SDS011;55949;52.590;7.330;2023-05-07T03:44:24;44.08;;;26.50;;
62997;SDS011;55949;52.590;7.330;2023-05-07T03:45:25;36.58;;;24.30;;
62997;SDS011;55949;52.590;7.330;2023-05-07T03:46:25;37.92;;;24.08;;
62997;SDS011;55949;52.590;7.330;2023-05-07T03:47:28;36.47;;;24.02;;
62997;SDS011;55949;52.590;7.330;2023-05-07T03:48:28;39.67;;;25.83;;
62997;SDS011;55949;52.590;7.330;2023-05-07T03:49:29;38.47;;;24.63;;
62997;SDS011;55949;52.590;7.330;2023-05-07T03:50:30;37.67;;;24.80;;
62997;SDS011;55949;52.590;7.330;2023-05-07T03:51:30;37.08;;;25.58;;
62997;SDS011;55949;52.590;7.330;2023-05-07T03:52:31;38.40;;;24.83;;
62997;SDS011;55949;52.590;7.330;2023-05-07T03:53:32;34.65;;;24.75;;
62997;SDS011;55949;52.590;7.330;2023-05-07T03:54:33;34.63;;;23.58;;
62997;SDS011;55949;52.590;7.330;2023-05-07T03:55:33;36.17;;;24.17;;
62997;SDS011;55949;52.590;7.330;2023-05-07T03:56:34;35.08;;;23.77;;
62997;SDS011;55949;52.590;7.330;2023-05-07T03:57:35;38.85;;;25.65;;
62997;SDS011;55949;52.590;7.330;2023-05-07T03:58:36;39.20;;;24.67;;
62997;SDS011;55949;52.590;7.330;2023-05-07T03:59:36;37.35;;;24.90;;
62997;SDS011;55949;52.590;7.330;2023-05-07T04:00:37;35.90;;;25.23;;
62997;SDS011;55949;52.590;7.330;2023-05-07T04:01:39;35.40;;;23.33;;
62997;SDS011;55949;52.590;7.330;2023-05-07T04:02:40;38.47;;;25.23;;
62997;SDS011;55949;52.590;7.330;2023-05-07T04:03:41;38.70;;;23.70;;
62997;SDS011;55949;52.590;7.330;2023-05-07T04:04:41;42.08;;;24.67;;
62997;SDS011;55949;52.590;7.330;2023-05-07T04:05:42;39.33;;;23.85;;
62997;SDS011;55949;52.590;7.330;2023-05-07T04:06:43;36.65;;;23.40;;
62997;SDS011;55949;52.590;7.330;2023-05-07T04:07:44;38.63;;;25.25;;
62997;SDS011;55949;52.590;7.330;2023-05-07T04:08:45;43.20;;;34.83;;
62997;SDS011;55949;52.590;7.330;2023-05-07T04:09:45;34.65;;;23.95;;
62997;SDS011;55949;52.590;7.330;2023-05-07T04:10:46;37.60;;;23.85;;
62997;SDS011;55949;52.590;7.330;2023-05-07T04:11:47;40.15;;;24.13;;
62997;SDS011;55949;52.590;7.330;2023-05-07T04:12:47;36.58;;;24.42;;
62997;SDS011;55949;52.590;7.330;2023-05-07T04:13:48;39.20;;;24.55;;
62997;SDS011;55949;52.590;7.330;2023-05-07T04:14:49;44.17;;;24.70;;
62997;SDS011;55949;52.590;7.330;2023-05-07T04:15:50;36.38;;;23.17;;
62997;SDS011;55949;52.590;7.330;2023-05-07T04:16:52;34.35;;;22.85;;
62997;SDS011;55949;52.590;7.330;2023-05-07T04:17:53;34.53;;;24.30;;
62997;SDS011;55949;52.590;7.330;2023-05-07T04:18:53;39.10;;;25.05;;
62997;SDS011;55949;52.590;7.330;2023-05-07T04:19:54;34.97;;;23.60;;
62997;SDS011;55949;52.590;7.330;2023-05-07T04:20:55;37.15;;;23.60;;
62997;SDS011;55949;52.590;7.330;2023-05-07T04:21:55;35.63;;;22.60;;
62997;SDS011;55949;52.590;7.330;2023-05-07T04:22:56;41.30;;;25.02;;
62997;SDS011;55949;52.590;7.330;2023-05-07T04:23:57;34.72;;;23.27;;
62997;SDS011;55949;52.590;7.330;2023-05-07T04:24:57;37.15;;;24.90;;
62997;SDS011;55949;52.590;7.330;2023-05-07T04:25:58;36.97;;;23.90;;
62997;SDS011;55949;52.590;7.330;2023-05-07T04:26:59;40.25;;;24.65;;
62997;SDS011;55949;52.590;7.330;2023-05-07T04:28:00;38.95;;;24.10;;
62997;SDS011;55949;52.590;7.330;2023-05-07T04:29:00;38.67;;;25.75;;
62997;SDS011;55949;52.590;7.330;2023-05-07T04:30:01;34.38;;;22.98;;
62997;SDS011;55949;52.590;7.330;2023-05-07T04:31:02;37.03;;;22.88;;
62997;SDS011;55949;52.590;7.330;2023-05-07T04:32:03;35.85;;;23.88;;
62997;SDS011;55949;52.590;7.330;2023-05-07T04:33:04;37.05;;;24.23;;
62997;SDS011;55949;52.590;7.330;2023-05-07T04:34:06;38.25;;;24.30;;
62997;SDS011;55949;52.590;7.330;2023-05-07T04:35:07;36.63;;;23.20;;
62997;SDS011;55949;52.590;7.330;2023-05-07T04:36:08;39.65;;;24.67;;
62997;SDS011;55949;52.590;7.330;2023-05-07T04:37:09;40.60;;;26.25;;
62997;SDS011;55949;52.590;7.330;2023-05-07T04:38:09;35.35;;;23.52;;
62997;SDS011;55949;52.590;7.330;2023-05-07T04:39:11;41.60;;;25.55;;
62997;SDS011;55949;52.590;7.330;2023-05-07T04:40:12;45.67;;;25.00;;
62997;SDS011;55949;52.590;7.330;2023-05-07T04:41:13;39.80;;;24.95;;
62997;SDS011;55949;52.590;7.330;2023-05-07T04:42:14;37.40;;;26.17;;
62997;SDS011;55949;52.590;7.330;2023-05-07T04:43:15;36.80;;;23.48;;
62997;SDS011;55949;52.590;7.330;2023-05-07T04:44:16;41.75;;;25.05;;
62997;SDS011;55949;52.590;7.330;2023-05-07T04:45:17;41.25;;;29.15;;
62997;SDS011;55949;52.590;7.330;2023-05-07T04:46:18;38.22;;;27.65;;
62997;SDS011;55949;52.590;7.330;2023-05-07T04:47:18;37.50;;;24.70;;
62997;SDS011;55949;52.590;7.330;2023-05-07T04:48:19;38.00;;;24.40;;
62997;SDS011;55949;52.590;7.330;2023-05-07T04:49:20;42.45;;;26.08;;
62997;SDS011;55949;52.590;7.330;2023-05-07T04:50:21;38.47;;;25.58;;
62997;SDS011;55949;52.590;7.330;2023-05-07T04:51:24;41.53;;;25.05;;
62997;SDS011;55949;52.590;7.330;2023-05-07T04:52:25;36.78;;;24.38;;
62997;SDS011;55949;52.590;7.330;2023-05-07T04:53:26;45.28;;;25.75;;
62997;SDS011;55949;52.590;7.330;2023-05-07T04:54:27;40.13;;;26.10;;
62997;SDS011;55949;52.590;7.330;2023-05-07T04:55:28;41.92;;;24.92;;
62997;SDS011;55949;52.590;7.330;2023-05-07T04:56:29;38.03;;;25.13;;
62997;SDS011;55949;52.590;7.330;2023-05-07T04:57:30;39.20;;;26.48;;
62997;SDS011;55949;52.590;7.330;2023-05-07T04:58:31;43.97;;;26.98;;
62997;SDS011;55949;52.590;7.330;2023-05-07T04:59:32;43.75;;;26.85;;
62997;SDS011;55949;52.590;7.330;2023-05-07T05:00:33;40.33;;;26.77;;
62997;SDS011;55949;52.590;7.330;2023-05-07T05:01:33;38.28;;;26.10;;
62997;SDS011;55949;52.590;7.330;2023-05-07T05:02:34;37.45;;;25.83;;
62997;SDS011;55949;52.590;7.330;2023-05-07T05:03:35;48.75;;;29.33;;
62997;SDS011;55949;52.590;7.330;2023-05-07T05:04:36;43.70;;;27.08;;
62997;SDS011;55949;52.590;7.330;2023-05-07T05:05:37;44.53;;;27.75;;
62997;SDS011;55949;52.590;7.330;2023-05-07T05:06:38;44.30;;;26.13;;
62997;SDS011;55949;52.590;7.330;2023-05-07T05:07:38;40.53;;;26.23;;
62997;SDS011;55949;52.590;7.330;2023-05-07T05:08:39;42.78;;;27.00;;
62997;SDS011;55949;52.590;7.330;2023-05-07T05:09:40;46.78;;;27.38;;
62997;SDS011;55949;52.590;7.330;2023-05-07T05:10:41;45.38;;;27.80;;
62997;SDS011;55949;52.590;7.330;2023-05-07T05:11:43;40.65;;;26.25;;
62997;SDS011;55949;52.590;7.330;2023-05-07T05:12:44;46.30;;;26.70;;
62997;SDS011;55949;52.590;7.330;2023-05-07T05:13:45;42.47;;;26.90;;
62997;SDS011;55949;52.590;7.330;2023-05-07T05:14:47;40.97;;;26.27;;
62997;SDS011;55949;52.590;7.330;2023-05-07T05:15:48;40.78;;;26.52;;
62997;SDS011;55949;52.590;7.330;2023-05-07T05:16:48;46.67;;;28.95;;
62997;SDS011;55949;52.590;7.330;2023-05-07T05:17:49;42.38;;;27.00;;
62997;SDS011;55949;52.590;7.330;2023-05-07T05:18:50;40.95;;;26.08;;
62997;SDS011;55949;52.590;7.330;2023-05-07T05:19:52;46.35;;;26.95;;
62997;SDS011;55949;52.590;7.330;2023-05-07T05:20:52;45.58;;;27.95;;
62997;SDS011;55949;52.590;7.330;2023-05-07T05:21:53;41.45;;;26.55;;
62997;SDS011;55949;52.590;7.330;2023-05-07T05:22:54;45.63;;;27.63;;
62997;SDS011;55949;52.590;7.330;2023-05-07T05:23:54;43.47;;;27.63;;
62997;SDS011;55949;52.590;7.330;2023-05-07T05:24:55;43.85;;;27.67;;
62997;SDS011;55949;52.590;7.330;2023-05-07T05:25:56;45.30;;;27.65;;
62997;SDS011;55949;52.590;7.330;2023-05-07T05:26:57;47.08;;;28.55;;
62997;SDS011;55949;52.590;7.330;2023-05-07T05:28:01;41.28;;;27.27;;
62997;SDS011;55949;52.590;7.330;2023-05-07T05:29:01;44.88;;;28.38;;
62997;SDS011;55949;52.590;7.330;2023-05-07T05:30:03;43.40;;;26.88;;
62997;SDS011;55949;52.590;7.330;2023-05-07T05:31:04;38.00;;;25.52;;
62997;SDS011;55949;52.590;7.330;2023-05-07T05:32:05;42.13;;;26.65;;
62997;SDS011;55949;52.590;7.330;2023-05-07T05:33:06;44.17;;;27.45;;
62997;SDS011;55949;52.590;7.330;2023-05-07T05:34:06;47.63;;;28.48;;
62997;SDS011;55949;52.590;7.330;2023-05-07T05:35:07;44.35;;;27.95;;
62997;SDS011;55949;52.590;7.330;2023-05-07T05:36:11;42.85;;;27.75;;
62997;SDS011;55949;52.590;7.330;2023-05-07T05:37:13;46.03;;;27.83;;
62997;SDS011;55949;52.590;7.330;2023-05-07T05:38:13;40.00;;;28.30;;
62997;SDS011;55949;52.590;7.330;2023-05-07T05:39:14;44.70;;;25.67;;
62997;SDS011;55949;52.590;7.330;2023-05-07T05:40:15;39.38;;;26.77;;
62997;SDS011;55949;52.590;7.330;2023-05-07T05:41:16;46.67;;;28.77;;
62997;SDS011;55949;52.590;7.330;2023-05-07T05:42:16;45.55;;;27.52;;
62997;SDS011;55949;52.590;7.330;2023-05-07T05:43:17;44.42;;;26.95;;
62997;SDS011;55949;52.590;7.330;2023-05-07T05:44:18;41.45;;;26.50;;
62997;SDS011;55949;52.590;7.330;2023-05-07T05:45:18;44.42;;;28.25;;
62997;SDS011;55949;52.590;7.330;2023-05-07T05:46:19;43.03;;;27.00;;
62997;SDS011;55949;52.590;7.330;2023-05-07T05:47:20;44.15;;;26.48;;
62997;SDS011;55949;52.590;7.330;2023-05-07T05:48:20;42.88;;;28.95;;
62997;SDS011;55949;52.590;7.330;2023-05-07T05:49:21;46.47;;;28.15;;
62997;SDS011;55949;52.590;7.330;2023-05-07T05:50:22;44.13;;;27.42;;
62997;SDS011;55949;52.590;7.330;2023-05-07T05:51:22;42.85;;;26.17;;
62997;SDS011;55949;52.590;7.330;2023-05-07T05:52:23;46.28;;;28.25;;
62997;SDS011;55949;52.590;7.330;2023-05-07T05:53:25;45.42;;;27.38;;
62997;SDS011;55949;52.590;7.330;2023-05-07T05:54:25;46.38;;;28.65;;
62997;SDS011;55949;52.590;7.330;2023-05-07T05:55:26;41.92;;;25.90;;
62997;SDS011;55949;52.590;7.330;2023-05-07T05:56:27;43.13;;;27.52;;
62997;SDS011;55949;52.590;7.330;2023-05-07T05:57:30;46.60;;;28.70;;